Terminal Aerodrome Forecast
Issued by NWS Twin Cities, MN

Home | Current Version | Previous Version | Graphics & Text | Print | Product List | Glossary On
Versions: 1 2 3 4 5 6 7 8 9 10 11 12 13 14 15 16 17 18 19 20 21 22 23 24 25 26 27 28 29 30
425
FTUS43 KMPX 241431 AAA
TAFMSP
TAF AMD
KMSP 241431Z 2415/2518 01016G23KT P6SM OVC025
     FM241700 36017G27KT P6SM FEW025 OVC050
     FM250200 34015G23KT P6SM SCT025 BKN050
     FM251200 32012KT P6SM SCT250=

USA.gov is the U.S. government's official web portal to all federal, state and local government web resources and services.